Dallas, Texas
Current Conditions -  °F | °C
As of 8:53 AM on Monday 22 Dec 2014 (Local Time) from KDAL Reporting Station
Few Clouds Few Clouds  
Wind Chill: 57°   Ceiling: Unl
Heat Index: 57°   Visibility: 10mi
Dew Point: 50°   Wind: 12mph
Humidity: 77%   Direction: 210°SSW
Pressure: 29.61"   Gusts: NA
Location:  32.78°N, 96.79°W
Report Text: KDAL 221453Z 21010KT 10SM FEW015 FEW250 14/10 A2961 RMK AO2 SLP023 T01390100 53001
Loading
Personal Weather Stations






























Interactive Weather Map New forecast layout! Learn more

10-Day Weather Forecast

Advertisements
Track Severe Weather on mobile